• Join FlightAware (Why Join?)
  • Login
  • US Flag 
01:23PM EDT


 

Airport Tracker/Info


-or-


 

Live Flight TrackerFlight Track Log ✈ TAM3491 ✈ 30-Aug-2013 ✈ SBSR / SJP - SBGR / GRU

Flight Track Log - Related Links

Times and Time Zones

All times are in EDT time to prevent confusion due to time zone crossing. See the TAM3491 flight status page for this flight to view local times or setup timezone preferences in your user account.

Time Position Orientation Groundspeed Altitude Reporting Facility
EDT Latitude Longitude Course Direction KTS MPH feet Rate Location/Type
09:44AM -22.1308 -47.9518 134° Southeast  Level Estimated
09:45AM -22.1831 -47.8930 134° Southeast  Level Estimated
09:46AM -22.2354 -47.8342 134° Southeast  Level Estimated
09:47AM -22.2876 -47.7754 134° Southeast  Level Estimated
09:48AM -22.3399 -47.7165 134° Southeast  Level Estimated
09:49AM -22.3921 -47.6576 134° Southeast  Level Estimated
09:50AM -22.4443 -47.5986 134° Southeast  Level Estimated
09:51AM -22.4965 -47.5396 134° Southeast  Level Estimated
09:52AM -22.5486 -47.4806 134° Southeast  Level Estimated
09:53AM -22.6007 -47.4215 134° Southeast  Level Estimated
09:54AM -22.6529 -47.3623 134° Southeast  Level Estimated
09:55AM -22.7050 -47.3032 134° Southeast  Level Estimated
09:56AM -22.7570 -47.2439 134° Southeast  Level Estimated
09:57AM -22.8091 -47.1846 134° Southeast  Level Estimated
09:58AM -22.8611 -47.1253 134° Southeast  Level Estimated
09:59AM -22.9131 -47.0659 134° Southeast  Level Estimated
10:00AM -22.9651 -47.0065 134° Southeast  Level Estimated
10:01AM -23.0170 -46.9471 134° Southeast  Level Estimated
10:02AM -23.0690 -46.8876 133° Southeast  Level Estimated
10:03AM -23.1209 -46.8280 133° Southeast  Level Estimated
10:04AM -23.1728 -46.7684 133° Southeast  Level Estimated
10:05AM -23.2246 -46.7088 133° Southeast  Level Estimated
10:06AM -23.2765 -46.6491 133° Southeast  Level Estimated
10:07AM -23.3283 -46.5894 133° Southeast  Level Estimated
10:08AM -23.3801 -46.5296 133° Southeast  Level Estimated
10:09AM -23.4319 -46.4697 133° Southeast  Level Estimated
10:10AM -23.4321 -46.4695 133° Southeast  Level Estimated
10:11AM -23.4321 -46.4695 190° South  Level Estimated
10:12AM -23.4321 -46.4695 350° North  Level Estimated
10:13AM -23.4321 -46.4695 350° North  Level Estimated
10:14AM -23.4321 -46.4695 350° North  Level Estimated
10:15AM -23.4321 -46.4695 350° North  Level Estimated
10:16AM -23.4321 -46.4695 350° North  Level Estimated
10:17AM -23.4321 -46.4695 350° North  Level Estimated
10:18AM -23.4321 -46.4695 350° North  Level Estimated
10:19AM -23.4321 -46.4695 350° North  Level Estimated
10:20AM -23.4321 -46.4695 350° North  Level Estimated
10:21AM -23.4321 -46.4695 350° North  Level Estimated
10:22AM -23.4321 -46.4695 350° North  Level Estimated
10:23AM -23.4321 -46.4695 350° North  Level Estimated
10:24AM -23.4321 -46.4695 350° North  Level Estimated
10:25AM -23.4321 -46.4695 350° North  Level Estimated